Time;durP1;ratioP1;P1;durP2;ratioP2;P2;SDS_P1;SDS_P2;PMS_P1;PMS_P2;Temp;Humidity;BMP_temperature;BMP_pressure;BME280_temperature;BME280_humidity;BME280_pressure;Samples;Min_cycle;Max_cycle;Signal;HPM_P1;HPM_P2
2022/07/25 00:01:09;;;;;;;3.92;3.30;;;;;;;;;;5070326;28;20025;-38
2022/07/25 00:03:35;;;;;;;5.65;3.35;;;;;;;;;;5072106;28;20045;-34
2022/07/25 00:06:00;;;;;;;7.60;3.40;;;;;;;;;;5072422;28;20016;-34
2022/07/25 00:08:25;;;;;;;4.35;3.60;;;;;;;;;;5072199;28;20013;-34
2022/07/25 00:10:50;;;;;;;4.95;3.60;;;;;;;;;;5070686;28;20025;-35
2022/07/25 00:13:16;;;;;;;4.28;3.60;;;;;;;;;;5070782;28;20490;-35
2022/07/25 00:15:41;;;;;;;4.75;3.83;;;;;;;;;;5071746;28;20039;-34
2022/07/25 00:18:06;;;;;;;5.63;3.40;;;;;;;;;;5070623;28;20434;-34
2022/07/25 00:20:32;;;;;;;4.10;3.70;;;;;;;;;;5072428;28;20027;-35
2022/07/25 00:22:57;;;;;;;5.07;3.95;;;;;;;;;;5072044;28;20031;-33
2022/07/25 00:25:23;;;;;;;4.03;3.20;;;;;;;;;;5071739;28;20016;-35
2022/07/25 00:27:48;;;;;;;4.75;3.35;;;;;;;;;;5070422;28;20021;-34
2022/07/25 00:30:13;;;;;;;4.67;3.07;;;;;;;;;;5071456;28;20024;-34
2022/07/25 00:32:38;;;;;;;5.05;3.25;;;;;;;;;;5070080;28;20634;-34
2022/07/25 00:35:04;;;;;;;3.92;3.45;;;;;;;;;;5072036;28;20455;-35
2022/07/25 00:37:29;;;;;;;5.75;3.30;;;;;;;;;;5071986;28;20024;-34
2022/07/25 00:39:55;;;;;;;5.70;3.10;;;;;;;;;;5070387;28;20112;-38
2022/07/25 00:42:22;;;;;;;3.30;3.00;;;;;;;;;;5071264;28;20017;-36
2022/07/25 00:44:48;;;;;;;3.80;3.10;;;;;;;;;;5071085;28;20539;-35
2022/07/25 00:47:13;;;;;;;4.00;3.20;;;;;;;;;;5069699;28;20112;-35
2022/07/25 00:49:38;;;;;;;5.47;3.10;;;;;;;;;;5071656;28;20020;-34
2022/07/25 00:52:04;;;;;;;4.10;3.53;;;;;;;;;;5070167;28;20809;-35
2022/07/25 00:54:29;;;;;;;4.30;3.53;;;;;;;;;;5071705;28;20028;-33
2022/07/25 00:56:54;;;;;;;6.80;3.50;;;;;;;;;;5071708;28;20016;-35
2022/07/25 00:59:20;;;;;;;4.57;3.40;;;;;;;;;;5071431;28;20027;-33
2022/07/25 01:01:46;;;;;;;5.00;3.58;;;;;;;;;;5071220;28;20303;-34
2022/07/25 01:04:12;;;;;;;3.90;3.40;;;;;;;;;;5070441;28;20040;-35
2022/07/25 01:06:37;;;;;;;7.15;3.60;;;;;;;;;;5071418;28;20521;-35
2022/07/25 01:09:03;;;;;;;3.47;2.87;;;;;;;;;;5071564;28;20529;-34
2022/07/25 01:11:28;;;;;;;6.50;3.60;;;;;;;;;;5069920;28;20241;-34
2022/07/25 01:13:53;;;;;;;4.10;3.25;;;;;;;;;;5071331;28;20105;-34
2022/07/25 01:16:18;;;;;;;4.40;3.03;;;;;;;;;;5071311;28;20024;-35
2022/07/25 01:18:44;;;;;;;5.23;3.53;;;;;;;;;;5071193;28;20372;-34
2022/07/25 01:21:09;;;;;;;4.85;3.70;;;;;;;;;;5069957;28;20332;-34
2022/07/25 01:23:34;;;;;;;5.38;3.40;;;;;;;;;;5071410;28;20044;-34
2022/07/25 01:26:00;;;;;;;6.90;3.47;;;;;;;;;;5069982;28;20056;-35
2022/07/25 01:28:25;;;;;;;6.97;3.50;;;;;;;;;;5070708;28;20020;-34
2022/07/25 01:30:50;;;;;;;4.15;3.28;;;;;;;;;;5070969;28;20668;-35
2022/07/25 01:33:16;;;;;;;3.45;2.95;;;;;;;;;;5070941;28;20040;-34
2022/07/25 01:35:42;;;;;;;5.07;3.20;;;;;;;;;;5070782;28;20092;-35
2022/07/25 01:38:07;;;;;;;4.43;3.53;;;;;;;;;;5070055;28;20108;-35
2022/07/25 01:40:33;;;;;;;3.10;2.80;;;;;;;;;;5069887;28;20342;-35
2022/07/25 01:42:58;;;;;;;5.20;3.13;;;;;;;;;;5071309;28;20104;-34
2022/07/25 01:45:23;;;;;;;4.07;3.17;;;;;;;;;;5070879;28;20025;-35
2022/07/25 01:47:48;;;;;;;5.32;3.28;;;;;;;;;;5069779;28;20024;-35
2022/07/25 01:50:14;;;;;;;4.40;3.53;;;;;;;;;;5070987;28;20024;-33
2022/07/25 01:52:39;;;;;;;6.10;3.15;;;;;;;;;;5070491;28;20108;-33
2022/07/25 01:55:05;;;;;;;6.18;3.95;;;;;;;;;;5069471;28;20036;-34
2022/07/25 01:57:30;;;;;;;5.43;3.75;;;;;;;;;;5069223;28;20108;-34
2022/07/25 01:59:55;;;;;;;10.05;3.53;;;;;;;;;;5069313;28;20020;-34
2022/07/25 02:02:21;;;;;;;8.05;3.95;;;;;;;;;;5069396;28;20502;-34
2022/07/25 02:04:46;;;;;;;7.07;3.75;;;;;;;;;;5069158;28;20158;-34
2022/07/25 02:07:11;;;;;;;5.28;3.75;;;;;;;;;;5069591;28;20093;-34
2022/07/25 02:09:36;;;;;;;7.03;3.90;;;;;;;;;;5070861;28;20020;-33
2022/07/25 02:12:02;;;;;;;4.40;3.63;;;;;;;;;;5070538;28;20245;-33
2022/07/25 02:14:27;;;;;;;5.90;3.22;;;;;;;;;;5070009;28;20027;-34
2022/07/25 02:16:52;;;;;;;4.35;3.35;;;;;;;;;;5069549;28;20016;-34
2022/07/25 02:19:18;;;;;;;7.43;4.43;;;;;;;;;;5071047;28;20025;-34
2022/07/25 02:21:43;;;;;;;9.35;4.45;;;;;;;;;;5069657;28;20520;-33
2022/07/25 02:24:09;;;;;;;5.00;4.00;;;;;;;;;;5070442;28;20047;-34
2022/07/25 02:26:34;;;;;;;5.90;4.20;;;;;;;;;;5070172;28;20465;-36
2022/07/25 02:28:59;;;;;;;5.97;4.10;;;;;;;;;;5070483;28;20039;-33
2022/07/25 02:31:24;;;;;;;4.88;3.90;;;;;;;;;;5070154;28;20032;-33
2022/07/25 02:33:50;;;;;;;4.78;3.95;;;;;;;;;;5070464;28;20043;-33
2022/07/25 02:36:15;;;;;;;6.60;3.90;;;;;;;;;;5069177;28;20391;-35
2022/07/25 02:38:41;;;;;;;8.90;5.25;;;;;;;;;;5070377;28;20048;-34
2022/07/25 02:41:06;;;;;;;5.20;3.60;;;;;;;;;;5074048;28;20099;-33
2022/07/25 02:43:32;;;;;;;5.22;3.90;;;;;;;;;;5074289;28;20013;-35
2022/07/25 02:45:57;;;;;;;4.65;4.10;;;;;;;;;;5074380;28;20048;-34
2022/07/25 02:48:22;;;;;;;4.07;3.58;;;;;;;;;;5073952;28;20481;-38
2022/07/25 02:50:47;;;;;;;4.60;3.50;;;;;;;;;;5073972;28;20020;-33
2022/07/25 02:53:13;;;;;;;5.22;3.88;;;;;;;;;;5073589;28;20748;-34
2022/07/25 02:55:38;;;;;;;4.45;3.65;;;;;;;;;;5072250;28;20024;-34
2022/07/25 02:58:03;;;;;;;4.47;3.63;;;;;;;;;;5072716;28;20490;-33
2022/07/25 03:00:29;;;;;;;6.28;3.90;;;;;;;;;;5073330;28;20138;-33
2022/07/25 03:02:54;;;;;;;4.03;3.63;;;;;;;;;;5072137;28;20056;-33
2022/07/25 03:05:20;;;;;;;5.82;3.78;;;;;;;;;;5072195;28;20034;-37
2022/07/25 03:07:45;;;;;;;7.78;4.97;;;;;;;;;;5072559;28;20482;-33
2022/07/25 03:10:11;;;;;;;6.65;4.13;;;;;;;;;;5073465;28;20017;-33
2022/07/25 03:12:37;;;;;;;4.07;3.20;;;;;;;;;;5072274;28;20024;-33
2022/07/25 03:15:03;;;;;;;6.97;3.78;;;;;;;;;;5073179;28;20032;-34
2022/07/25 03:17:28;;;;;;;4.55;3.55;;;;;;;;;;5072046;28;20031;-33
2022/07/25 03:19:54;;;;;;;4.75;3.70;;;;;;;;;;5072947;28;20027;-33
2022/07/25 03:22:19;;;;;;;5.97;3.53;;;;;;;;;;5071710;28;20094;-35
2022/07/25 03:24:44;;;;;;;5.22;3.85;;;;;;;;;;5073164;28;20439;-33
2022/07/25 03:27:09;;;;;;;4.93;3.65;;;;;;;;;;5073451;28;20012;-34
2022/07/25 03:29:35;;;;;;;5.30;3.40;;;;;;;;;;5071383;28;20022;-33
2022/07/25 03:32:00;;;;;;;4.32;3.33;;;;;;;;;;5072861;28;20016;-34
2022/07/25 03:34:26;;;;;;;4.25;3.60;;;;;;;;;;5071275;28;20085;-34
2022/07/25 03:36:51;;;;;;;4.13;3.50;;;;;;;;;;5071269;28;20029;-34
2022/07/25 03:39:17;;;;;;;5.32;3.65;;;;;;;;;;5071535;28;20078;-35
2022/07/25 03:41:42;;;;;;;4.10;3.70;;;;;;;;;;5072651;28;20485;-36
2022/07/25 03:44:07;;;;;;;6.13;4.60;;;;;;;;;;5071453;28;20021;-34
2022/07/25 03:46:32;;;;;;;8.07;3.60;;;;;;;;;;5071532;28;20024;-35
2022/07/25 03:48:58;;;;;;;5.97;3.65;;;;;;;;;;5072674;28;20025;-34
2022/07/25 03:51:23;;;;;;;4.45;3.60;;;;;;;;;;5070575;28;20035;-35
2022/07/25 03:54:00;;;;;;;4.15;3.67;;;;;;;;;;5053056;28;20041;-34
2022/07/25 03:56:26;;;;;;;5.43;3.30;;;;;;;;;;5052778;28;20379;-34
2022/07/25 03:58:51;;;;;;;6.63;3.55;;;;;;;;;;5052521;28;20016;-34
2022/07/25 04:01:17;;;;;;;4.50;3.65;;;;;;;;;;5052237;28;20048;-33
2022/07/25 04:03:42;;;;;;;4.85;3.80;;;;;;;;;;5052392;28;20027;-33
2022/07/25 04:06:07;;;;;;;4.65;3.22;;;;;;;;;;5067608;28;20044;-33
2022/07/25 04:08:33;;;;;;;4.70;3.35;;;;;;;;;;5051956;28;20070;-34
2022/07/25 04:10:58;;;;;;;4.82;3.72;;;;;;;;;;5052689;28;20471;-34
2022/07/25 04:13:23;;;;;;;6.85;4.05;;;;;;;;;;5052044;28;20103;-34
2022/07/25 04:15:49;;;;;;;4.13;3.35;;;;;;;;;;5052230;28;20036;-34
2022/07/25 04:18:14;;;;;;;5.93;3.72;;;;;;;;;;5067318;28;20021;-34
2022/07/25 04:20:39;;;;;;;4.90;3.70;;;;;;;;;;5051855;28;20017;-33
2022/07/25 04:23:04;;;;;;;5.75;3.85;;;;;;;;;;5067508;28;20089;-34
2022/07/25 04:25:30;;;;;;;8.52;3.80;;;;;;;;;;5052220;28;20017;-33
2022/07/25 04:27:55;;;;;;;6.67;3.67;;;;;;;;;;5052045;28;20017;-33
2022/07/25 04:30:20;;;;;;;4.88;3.53;;;;;;;;;;5067033;28;20714;-34
2022/07/25 04:32:46;;;;;;;6.68;3.30;;;;;;;;;;5050472;28;20170;-33
2022/07/25 04:35:11;;;;;;;6.97;3.35;;;;;;;;;;5067283;28;20055;-34
2022/07/25 04:37:36;;;;;;;4.43;3.55;;;;;;;;;;5066894;28;20024;-33
2022/07/25 04:40:03;;;;;;;4.03;3.10;;;;;;;;;;5067056;28;20021;-33
2022/07/25 04:42:28;;;;;;;4.40;3.40;;;;;;;;;;5052017;28;20024;-34
2022/07/25 04:44:53;;;;;;;6.85;2.95;;;;;;;;;;5050374;28;20025;-34
2022/07/25 04:47:18;;;;;;;4.45;3.10;;;;;;;;;;5067189;28;20017;-33
2022/07/25 04:49:44;;;;;;;5.73;3.13;;;;;;;;;;5051485;28;20070;-35
2022/07/25 04:52:09;;;;;;;5.57;3.33;;;;;;;;;;5057444;28;20273;-35
2022/07/25 04:54:34;;;;;;;10.00;3.58;;;;;;;;;;5071602;28;20667;-33
2022/07/25 04:57:00;;;;;;;5.65;3.05;;;;;;;;;;5070054;28;20028;-33
2022/07/25 04:59:25;;;;;;;5.57;3.42;;;;;;;;;;5070134;28;20044;-34
2022/07/25 05:01:50;;;;;;;4.97;2.72;;;;;;;;;;5070520;28;20036;-34
2022/07/25 05:04:16;;;;;;;8.87;2.70;;;;;;;;;;5071410;28;20008;-36
2022/07/25 05:06:41;;;;;;;5.05;2.95;;;;;;;;;;5070175;28;20356;-34
2022/07/25 05:09:06;;;;;;;4.83;3.13;;;;;;;;;;5071754;28;20066;-34
2022/07/25 05:11:31;;;;;;;6.60;2.72;;;;;;;;;;5070897;28;20367;-35
2022/07/25 05:13:57;;;;;;;5.35;2.88;;;;;;;;;;5071180;28;20372;-34
2022/07/25 05:16:22;;;;;;;5.35;3.08;;;;;;;;;;5071092;28;20387;-36
2022/07/25 05:18:47;;;;;;;4.90;2.70;;;;;;;;;;5069956;28;20074;-34
2022/07/25 05:21:13;;;;;;;3.67;2.58;;;;;;;;;;5070134;28;20021;-35
2022/07/25 05:23:38;;;;;;;4.15;3.03;;;;;;;;;;5071427;28;20012;-34
2022/07/25 05:26:03;;;;;;;4.82;2.60;;;;;;;;;;5071486;28;20029;-34
2022/07/25 05:28:29;;;;;;;9.70;3.00;;;;;;;;;;5069847;28;20024;-34
2022/07/25 05:30:54;;;;;;;6.22;3.28;;;;;;;;;;5069715;28;20025;-34
2022/07/25 05:33:19;;;;;;;5.53;3.20;;;;;;;;;;5071312;28;20032;-34
2022/07/25 05:35:45;;;;;;;5.67;2.73;;;;;;;;;;5069366;28;20793;-36
2022/07/25 05:38:10;;;;;;;5.33;2.97;;;;;;;;;;5070455;28;20321;-34
2022/07/25 05:40:35;;;;;;;5.40;2.85;;;;;;;;;;5060362;28;20257;-34
2022/07/25 05:43:00;;;;;;;8.98;2.90;;;;;;;;;;5058539;28;20112;-36
2022/07/25 05:45:26;;;;;;;4.93;3.00;;;;;;;;;;5059619;28;20042;-34
2022/07/25 05:47:51;;;;;;;7.65;2.83;;;;;;;;;;5058065;28;20251;-34
2022/07/25 05:50:16;;;;;;;3.63;2.80;;;;;;;;;;5055630;28;20024;-34
2022/07/25 05:52:41;;;;;;;4.40;2.97;;;;;;;;;;5061674;28;20241;-37
2022/07/25 05:55:07;;;;;;;4.37;2.77;;;;;;;;;;5070839;28;20289;-34
2022/07/25 05:57:34;;;;;;;3.88;2.92;;;;;;;;;;5066964;28;20276;-39
2022/07/25 05:59:59;;;;;;;8.98;3.05;;;;;;;;;;5068286;28;20126;-34
2022/07/25 06:02:25;;;;;;;4.80;2.40;;;;;;;;;;5064103;28;20048;-35
2022/07/25 06:04:50;;;;;;;6.30;3.00;;;;;;;;;;5076250;28;20111;-34
2022/07/25 06:07:15;;;;;;;6.00;2.92;;;;;;;;;;5062447;28;20037;-34
2022/07/25 06:09:41;;;;;;;11.65;3.08;;;;;;;;;;5059172;28;20029;-33
2022/07/25 06:12:06;;;;;;;5.00;2.50;;;;;;;;;;5063059;28;20017;-34
2022/07/25 06:14:32;;;;;;;4.35;2.40;;;;;;;;;;5064397;28;20435;-37
2022/07/25 06:16:58;;;;;;;4.43;2.10;;;;;;;;;;5071767;28;20054;-34
2022/07/25 06:19:23;;;;;;;5.97;2.58;;;;;;;;;;5088628;28;20096;-36
2022/07/25 06:21:48;;;;;;;6.60;2.65;;;;;;;;;;5074621;28;20023;-35
2022/07/25 06:24:14;;;;;;;3.13;2.30;;;;;;;;;;5062118;28;20028;-33
2022/07/25 06:26:39;;;;;;;6.50;2.58;;;;;;;;;;5070413;28;20032;-34
2022/07/25 06:29:04;;;;;;;14.82;3.38;;;;;;;;;;5086461;28;20409;-35
2022/07/25 06:31:30;;;;;;;5.65;2.65;;;;;;;;;;5083339;28;20069;-33
2022/07/25 06:33:55;;;;;;;6.10;2.57;;;;;;;;;;5092082;28;20038;-32
2022/07/25 06:36:20;;;;;;;9.10;2.77;;;;;;;;;;5077971;28;20047;-32
2022/07/25 06:38:46;;;;;;;8.23;2.53;;;;;;;;;;5069703;28;20360;-33
2022/07/25 06:41:14;;;;;;;9.53;2.90;;;;;;;;;;5069910;28;20020;-35
2022/07/25 06:43:40;;;;;;;;;;;;;;;;;;5072835;28;20743;-32
2022/07/25 06:46:05;;;;;;;5.57;2.30;;;;;;;;;;5073291;28;19953;-33
2022/07/25 06:48:30;;;;;;;11.90;2.90;;;;;;;;;;5069457;28;20055;-33
2022/07/25 06:50:56;;;;;;;7.90;2.70;;;;;;;;;;5072088;28;20615;-32
2022/07/25 06:53:21;;;;;;;6.47;2.53;;;;;;;;;;5074286;28;20028;-36
2022/07/25 06:55:46;;;;;;;4.93;2.43;;;;;;;;;;5052890;28;20658;-33
2022/07/25 06:58:11;;;;;;;2.70;1.90;;;;;;;;;;5084755;28;20027;-34
2022/07/25 07:00:37;;;;;;;2.63;2.23;;;;;;;;;;5071380;28;20042;-36
2022/07/25 07:03:02;;;;;;;4.18;2.35;;;;;;;;;;5069680;28;20350;-33
2022/07/25 07:05:29;;;;;;;4.60;2.05;;;;;;;;;;5085453;28;20023;-35
2022/07/25 07:07:54;;;;;;;9.95;2.45;;;;;;;;;;5082875;28;20021;-33
2022/07/25 07:10:20;;;;;;;7.75;2.28;;;;;;;;;;5070205;28;20078;-36
2022/07/25 07:12:46;;;;;;;12.93;2.10;;;;;;;;;;5062096;28;20021;-34
2022/07/25 07:15:12;;;;;;;6.68;2.20;;;;;;;;;;5072815;28;20671;-35
2022/07/25 07:17:37;;;;;;;3.50;1.70;;;;;;;;;;5078344;28;20020;-32
2022/07/25 07:20:03;;;;;;;11.98;2.47;;;;;;;;;;5070988;28;20426;-33
2022/07/25 07:22:29;;;;;;;5.97;1.90;;;;;;;;;;5072284;28;20039;-33
2022/07/25 07:24:54;;;;;;;5.17;1.80;;;;;;;;;;5084930;28;20039;-32
2022/07/25 07:27:22;;;;;;;6.10;2.00;;;;;;;;;;5082877;28;20416;-38
2022/07/25 07:29:47;;;;;;;2.05;1.85;;;;;;;;;;5079468;28;20020;-34
2022/07/25 07:32:13;;;;;;;7.32;2.13;;;;;;;;;;5091805;28;20039;-33
2022/07/25 07:34:38;;;;;;;3.28;2.00;;;;;;;;;;5075785;28;20028;-33
2022/07/25 07:37:04;;;;;;;4.70;2.30;;;;;;;;;;5070287;28;20024;-33
2022/07/25 07:39:29;;;;;;;2.87;1.80;;;;;;;;;;5075161;28;20144;-34
2022/07/25 07:41:54;;;;;;;4.67;2.23;;;;;;;;;;5070857;28;20261;-33
2022/07/25 07:44:19;;;;;;;4.57;2.10;;;;;;;;;;5078015;28;20279;-33
2022/07/25 07:46:45;;;;;;;7.10;2.23;;;;;;;;;;5091026;28;20024;-33
2022/07/25 07:49:10;;;;;;;2.00;1.90;;;;;;;;;;5091250;28;20260;-35
2022/07/25 07:51:35;;;;;;;3.57;1.90;;;;;;;;;;5090952;28;20260;-33
2022/07/25 07:56:44;;;;;;;2.42;1.77;;;;;;;;;;5072253;28;20248;-37
2022/07/25 07:59:10;;;;;;;2.72;2.03;;;;;;;;;;5054828;28;20020;-34
2022/07/25 08:01:35;;;;;;;5.00;2.35;;;;;;;;;;5052245;28;20045;-33
2022/07/25 08:04:01;;;;;;;5.90;1.80;;;;;;;;;;5061313;28;20351;-34
2022/07/25 08:06:26;;;;;;;11.98;2.20;;;;;;;;;;5057626;28;20245;-37
2022/07/25 08:08:52;;;;;;;3.40;1.90;;;;;;;;;;5052339;28;20029;-36
2022/07/25 08:11:17;;;;;;;8.30;2.80;;;;;;;;;;5051983;28;20017;-36
2022/07/25 08:13:42;;;;;;;3.50;1.90;;;;;;;;;;5051762;28;20528;-34
2022/07/25 08:16:10;;;;;;;5.53;2.20;;;;;;;;;;5072171;28;20742;-35
2022/07/25 08:18:36;;;;;;;4.00;2.17;;;;;;;;;;5066105;28;20438;-34
2022/07/25 08:21:04;;;;;;;5.75;2.10;;;;;;;;;;5065163;28;20135;-37
2022/07/25 08:23:31;;;;;;;6.75;1.90;;;;;;;;;;5058596;28;20023;-38
2022/07/25 08:25:57;;;;;;;4.55;2.00;;;;;;;;;;5075485;28;20086;-34
2022/07/25 08:28:22;;;;;;;2.50;1.80;;;;;;;;;;5072394;28;20433;-36
2022/07/25 08:30:47;;;;;;;3.17;2.20;;;;;;;;;;5079590;28;20032;-33
2022/07/25 08:33:14;;;;;;;4.68;2.03;;;;;;;;;;5085488;28;20264;-36
2022/07/25 08:35:44;;;;;;;8.20;2.20;;;;;;;;;;5074565;28;20064;-34
2022/07/25 08:38:10;;;;;;;3.42;2.00;;;;;;;;;;5065034;28;20024;-35
2022/07/25 08:40:35;;;;;;;6.07;1.95;;;;;;;;;;5064465;28;20016;-35
2022/07/25 08:43:01;;;;;;;2.78;1.90;;;;;;;;;;5064534;28;20108;-33
2022/07/25 08:45:28;;;;;;;3.85;2.33;;;;;;;;;;5067919;28;20497;-35
2022/07/25 08:47:53;;;;;;;6.05;2.33;;;;;;;;;;5065946;28;20089;-37
2022/07/25 08:50:21;;;;;;;4.72;2.40;;;;;;;;;;5075902;28;20029;-33
2022/07/25 08:52:46;;;;;;;3.15;2.20;;;;;;;;;;5074661;28;20021;-35
2022/07/25 08:55:14;;;;;;;4.75;2.17;;;;;;;;;;5075996;28;20036;-36
2022/07/25 08:57:42;;;;;;;2.90;2.13;;;;;;;;;;5058822;28;20021;-37
2022/07/25 09:00:08;;;;;;;2.70;2.15;;;;;;;;;;5102957;28;20016;-34
2022/07/25 09:02:34;;;;;;;5.05;2.85;;;;;;;;;;5072263;28;20479;-34
2022/07/25 09:04:59;;;;;;;5.07;2.20;;;;;;;;;;5089422;28;20043;-34
2022/07/25 09:07:34;;;;;;;4.95;2.40;;;;;;;;;;5079063;28;20087;-33
2022/07/25 09:10:19;;;;;;;5.75;2.72;;;;;;;;;;5068705;28;20032;-37
2022/07/25 09:12:52;;;;;;;7.45;2.33;;;;;;;;;;5070569;28;20032;-35
2022/07/25 09:15:29;;;;;;;7.75;2.88;;;;;;;;;;5068046;28;20032;-35
2022/07/25 09:17:58;;;;;;;10.85;2.80;;;;;;;;;;5069165;28;20035;-34
2022/07/25 09:20:24;;;;;;;5.03;2.63;;;;;;;;;;5068190;28;20020;-35
2022/07/25 09:22:49;;;;;;;11.38;3.03;;;;;;;;;;5068254;28;20051;-34
2022/07/25 09:25:23;;;;;;;2.90;2.30;;;;;;;;;;5068470;28;20017;-36
2022/07/25 09:27:48;;;;;;;6.45;2.72;;;;;;;;;;5070925;28;20035;-35
2022/07/25 09:30:14;;;;;;;4.38;2.85;;;;;;;;;;5068726;28;20029;-35
2022/07/25 09:32:39;;;;;;;9.07;3.55;;;;;;;;;;5069079;28;20718;-36
2022/07/25 09:35:05;;;;;;;4.97;2.97;;;;;;;;;;5068596;28;20028;-36
2022/07/25 09:37:30;;;;;;;4.72;2.85;;;;;;;;;;5068836;28;20028;-35
2022/07/25 09:39:55;;;;;;;5.90;2.97;;;;;;;;;;5067923;28;20024;-36
2022/07/25 09:42:22;;;;;;;4.17;2.60;;;;;;;;;;5068796;28;20229;-36
2022/07/25 09:45:00;;;;;;;4.68;2.67;;;;;;;;;;5068703;28;20238;-35
2022/07/25 09:47:25;;;;;;;4.82;2.85;;;;;;;;;;5070170;28;20091;-34
2022/07/25 09:49:51;;;;;;;4.75;2.70;;;;;;;;;;5073129;28;20024;-33
2022/07/25 09:52:16;;;;;;;5.45;2.50;;;;;;;;;;5067861;28;20035;-34
2022/07/25 09:54:42;;;;;;;4.03;2.92;;;;;;;;;;5072869;28;20548;-35
2022/07/25 09:57:07;;;;;;;6.82;3.10;;;;;;;;;;5072602;28;20020;-33
2022/07/25 09:59:33;;;;;;;7.30;2.87;;;;;;;;;;5072851;28;20105;-38
2022/07/25 10:02:08;;;;;;;6.68;2.97;;;;;;;;;;5073612;28;20288;-34
2022/07/25 10:05:02;;;;;;;4.20;2.90;;;;;;;;;;5073509;28;20518;-36
2022/07/25 10:07:28;;;;;;;4.03;2.47;;;;;;;;;;5052130;28;20079;-35
2022/07/25 10:09:54;;;;;;;3.20;2.50;;;;;;;;;;5082193;28;20086;-35
2022/07/25 10:12:21;;;;;;;5.90;3.00;;;;;;;;;;5071417;28;20027;-34
2022/07/25 10:15:22;;;;;;;4.45;2.63;;;;;;;;;;5072666;28;20153;-35
2022/07/25 10:17:49;;;;;;;5.70;2.65;;;;;;;;;;5045542;28;20029;-36
2022/07/25 10:20:14;;;;;;;7.03;2.92;;;;;;;;;;5056907;28;20041;-34
2022/07/25 10:22:40;;;;;;;4.15;2.40;;;;;;;;;;5060600;28;20096;-34
2022/07/25 10:25:10;;;;;;;5.80;2.85;;;;;;;;;;5071956;28;20442;-37
2022/07/25 10:27:40;;;;;;;3.67;2.50;;;;;;;;;;5065975;28;20032;-37
2022/07/25 10:30:09;;;;;;;4.90;2.85;;;;;;;;;;5051876;28;20427;-37
2022/07/25 10:32:34;;;;;;;3.85;2.58;;;;;;;;;;5053341;28;20033;-34
2022/07/25 10:35:10;;;;;;;5.05;3.00;;;;;;;;;;5053247;28;20126;-33
2022/07/25 10:37:36;;;;;;;3.35;2.63;;;;;;;;;;5053608;28;20013;-34
2022/07/25 10:40:02;;;;;;;7.55;2.80;;;;;;;;;;5051148;28;20032;-43
2022/07/25 10:42:31;;;;;;;3.78;3.00;;;;;;;;;;5050736;28;20028;-37
2022/07/25 10:44:56;;;;;;;3.10;2.60;;;;;;;;;;5051722;28;20031;-46
2022/07/25 10:47:23;;;;;;;5.53;2.67;;;;;;;;;;5053328;28;20025;-46
2022/07/25 10:49:55;;;;;;;9.55;3.40;;;;;;;;;;5054001;28;20049;-44
2022/07/25 10:52:26;;;;;;;5.95;2.67;;;;;;;;;;5060956;28;20021;-44
2022/07/25 10:54:52;;;;;;;3.10;2.75;;;;;;;;;;5069352;28;20040;-47
2022/07/25 10:57:17;;;;;;;3.67;2.53;;;;;;;;;;5064915;28;20376;-43
2022/07/25 10:59:43;;;;;;;6.93;3.27;;;;;;;;;;5056685;28;20024;-45
2022/07/25 11:02:15;;;;;;;7.93;3.30;;;;;;;;;;5061946;28;20266;-43
2022/07/25 11:04:40;;;;;;;3.63;2.63;;;;;;;;;;5051032;28;20036;-43
2022/07/25 11:07:08;;;;;;;4.95;2.95;;;;;;;;;;5049320;28;20031;-47
2022/07/25 11:09:34;;;;;;;4.03;2.92;;;;;;;;;;5049767;28;20025;-43
2022/07/25 11:11:59;;;;;;;3.80;2.77;;;;;;;;;;5052465;28;20021;-45
2022/07/25 11:14:25;;;;;;;4.28;3.03;;;;;;;;;;5051421;28;20288;-42
2022/07/25 11:16:52;;;;;;;6.10;2.78;;;;;;;;;;5051607;28;20017;-44
2022/07/25 11:19:19;;;;;;;5.72;2.80;;;;;;;;;;5053039;28;20108;-41
2022/07/25 11:21:48;;;;;;;5.55;2.97;;;;;;;;;;5053440;28;20158;-44
2022/07/25 11:24:13;;;;;;;7.07;2.70;;;;;;;;;;5052772;28;20028;-43
2022/07/25 11:26:45;;;;;;;4.47;2.73;;;;;;;;;;5052334;28;20021;-40
2022/07/25 11:29:17;;;;;;;5.05;2.80;;;;;;;;;;5052483;28;20532;-43
2022/07/25 11:31:43;;;;;;;5.68;2.40;;;;;;;;;;5053140;28;20027;-41
2022/07/25 11:34:08;;;;;;;4.30;2.47;;;;;;;;;;5052567;28;20029;-42
2022/07/25 11:36:34;;;;;;;5.20;2.75;;;;;;;;;;5051057;28;20017;-43
2022/07/25 11:38:59;;;;;;;5.32;2.63;;;;;;;;;;5051620;28;20111;-42
2022/07/25 11:41:28;;;;;;;5.85;2.90;;;;;;;;;;5050797;28;20021;-42
2022/07/25 11:43:54;;;;;;;5.68;3.10;;;;;;;;;;5052126;28;20107;-43
2022/07/25 11:46:19;;;;;;;3.37;3.00;;;;;;;;;;5052056;28;20093;-41
2022/07/25 11:48:44;;;;;;;5.67;2.67;;;;;;;;;;5052283;28;20067;-43
2022/07/25 11:51:19;;;;;;;5.70;3.13;;;;;;;;;;5050802;28;20079;-43
2022/07/25 11:53:45;;;;;;;6.28;2.78;;;;;;;;;;5071006;28;20070;-42
2022/07/25 11:56:15;;;;;;;3.22;2.90;;;;;;;;;;5069800;28;20028;-41
2022/07/25 11:58:40;;;;;;;5.57;3.13;;;;;;;;;;5070208;28;20047;-39
2022/07/25 12:01:13;;;;;;;3.38;2.70;;;;;;;;;;5071574;28;20020;-45
2022/07/25 12:03:38;;;;;;;14.13;3.13;;;;;;;;;;5071082;28;20040;-43
2022/07/25 12:06:08;;;;;;;3.72;2.72;;;;;;;;;;5071691;28;20098;-42
2022/07/25 12:08:36;;;;;;;7.03;2.80;;;;;;;;;;5071308;28;20044;-43
2022/07/25 12:11:01;;;;;;;138.48;57.13;;;;;;;;;;5069744;28;20017;-43
2022/07/25 12:13:28;;;;;;;10.30;5.40;;;;;;;;;;5071702;28;20108;-43
2022/07/25 12:15:55;;;;;;;5.20;3.03;;;;;;;;;;5071800;28;20103;-43
2022/07/25 12:18:20;;;;;;;3.58;2.78;;;;;;;;;;5070991;28;20446;-43
2022/07/25 12:20:46;;;;;;;4.40;2.60;;;;;;;;;;5071699;28;20021;-42
2022/07/25 12:23:12;;;;;;;3.33;2.50;;;;;;;;;;5071756;28;20256;-45
2022/07/25 12:25:42;;;;;;;3.50;2.80;;;;;;;;;;5070652;28;20063;-44
2022/07/25 12:28:09;;;;;;;4.00;2.70;;;;;;;;;;5072101;28;20020;-45
2022/07/25 12:30:34;;;;;;;3.25;2.88;;;;;;;;;;5070425;28;20086;-41
2022/07/25 12:32:59;;;;;;;3.73;2.40;;;;;;;;;;5071270;28;20452;-43
2022/07/25 12:35:25;;;;;;;4.72;3.22;;;;;;;;;;5070875;28;20281;-43
2022/07/25 12:37:51;;;;;;;3.67;2.92;;;;;;;;;;5071334;28;20615;-44
2022/07/25 12:40:17;;;;;;;3.90;2.90;;;;;;;;;;5066009;28;20020;-46
2022/07/25 12:42:43;;;;;;;8.80;3.10;;;;;;;;;;5051332;28;20460;-41
2022/07/25 12:45:08;;;;;;;3.53;2.78;;;;;;;;;;5051821;28;20012;-44
2022/07/25 12:47:34;;;;;;;7.30;3.30;;;;;;;;;;5067088;28;20017;-46
2022/07/25 12:49:59;;;;;;;4.60;3.03;;;;;;;;;;5071325;28;20489;-40
2022/07/25 12:52:25;;;;;;;4.45;2.70;;;;;;;;;;5071301;28;20026;-42
2022/07/25 12:54:50;;;;;;;5.18;3.30;;;;;;;;;;5070784;28;20040;-45
2022/07/25 12:57:16;;;;;;;8.57;4.00;;;;;;;;;;5070567;28;20051;-44
2022/07/25 12:59:41;;;;;;;4.38;2.70;;;;;;;;;;5069978;28;20017;-44
2022/07/25 13:02:07;;;;;;;6.05;3.05;;;;;;;;;;5071001;28;20045;-44
2022/07/25 13:04:32;;;;;;;5.82;3.20;;;;;;;;;;5070723;28;20016;-46
2022/07/25 13:06:58;;;;;;;4.03;2.90;;;;;;;;;;5070539;28;20017;-45
2022/07/25 13:09:24;;;;;;;5.10;2.92;;;;;;;;;;5070858;28;20083;-44
2022/07/25 13:11:49;;;;;;;3.63;2.65;;;;;;;;;;5070821;28;20032;-44
2022/07/25 13:14:15;;;;;;;6.35;2.72;;;;;;;;;;5070510;28;20024;-45
2022/07/25 13:16:40;;;;;;;5.57;3.07;;;;;;;;;;5068471;28;20502;-42
2022/07/25 13:19:06;;;;;;;5.20;3.03;;;;;;;;;;5064996;28;20021;-46
2022/07/25 13:21:31;;;;;;;8.60;3.28;;;;;;;;;;5060229;28;20027;-45
2022/07/25 13:23:56;;;;;;;5.30;3.10;;;;;;;;;;5059950;28;20138;-42
2022/07/25 13:26:22;;;;;;;3.80;2.90;;;;;;;;;;5069119;28;20517;-47
2022/07/25 13:28:47;;;;;;;4.90;2.60;;;;;;;;;;5071172;28;20061;-45
2022/07/25 13:31:12;;;;;;;3.57;2.70;;;;;;;;;;5070792;28;20507;-44
2022/07/25 13:33:38;;;;;;;3.45;2.50;;;;;;;;;;5069149;28;20265;-44
2022/07/25 13:36:03;;;;;;;7.47;2.60;;;;;;;;;;5067582;28;20004;-46
2022/07/25 13:38:28;;;;;;;3.65;2.75;;;;;;;;;;5066851;28;20015;-46
2022/07/25 13:40:54;;;;;;;2.93;2.60;;;;;;;;;;5069576;28;20618;-44
2022/07/25 13:43:19;;;;;;;3.00;2.50;;;;;;;;;;5068744;28;20021;-44
2022/07/25 13:45:45;;;;;;;7.75;3.05;;;;;;;;;;5063686;28;20108;-46
2022/07/25 13:48:10;;;;;;;3.25;2.50;;;;;;;;;;5048102;28;20077;-47
2022/07/25 13:50:35;;;;;;;5.07;2.20;;;;;;;;;;5050485;28;20017;-45
2022/07/25 13:53:02;;;;;;;78.07;7.10;;;;;;;;;;5059298;28;20021;-44
2022/07/25 13:55:28;;;;;;;5.75;2.40;;;;;;;;;;5067203;28;20293;-44
2022/07/25 13:57:53;;;;;;;2.40;2.20;;;;;;;;;;5067285;28;20040;-44
2022/07/25 14:00:19;;;;;;;7.18;2.42;;;;;;;;;;5069052;28;20020;-44
2022/07/25 14:02:44;;;;;;;4.10;2.60;;;;;;;;;;5062317;28;20131;-45
2022/07/25 14:05:10;;;;;;;3.23;2.17;;;;;;;;;;5060820;28;20032;-46
2022/07/25 14:07:35;;;;;;;3.97;2.22;;;;;;;;;;5063068;28;20262;-44
2022/07/25 14:10:01;;;;;;;6.05;2.45;;;;;;;;;;5068253;28;20028;-46
2022/07/25 14:12:26;;;;;;;6.95;2.35;;;;;;;;;;5067293;28;20017;-45
2022/07/25 14:14:52;;;;;;;2.88;2.50;;;;;;;;;;5062281;28;20147;-45
2022/07/25 14:17:17;;;;;;;5.18;2.65;;;;;;;;;;5056159;28;20075;-45
2022/07/25 14:19:43;;;;;;;4.38;2.47;;;;;;;;;;5061736;28;20399;-48
2022/07/25 14:22:08;;;;;;;4.93;2.60;;;;;;;;;;5067166;28;20031;-45
2022/07/25 14:24:33;;;;;;;3.60;1.98;;;;;;;;;;5063208;28;20025;-46
2022/07/25 14:26:59;;;;;;;3.17;2.28;;;;;;;;;;5057978;28;20108;-46
2022/07/25 14:29:24;;;;;;;4.40;2.58;;;;;;;;;;5066147;28;20032;-42
2022/07/25 14:31:50;;;;;;;3.63;2.40;;;;;;;;;;5068096;28;20091;-45
2022/07/25 14:34:15;;;;;;;3.37;1.97;;;;;;;;;;5063234;28;20081;-48
2022/07/25 14:36:41;;;;;;;3.70;2.20;;;;;;;;;;5071229;28;20253;-44
2022/07/25 14:39:06;;;;;;;3.63;2.25;;;;;;;;;;5072914;28;20103;-44